createdAt,value
2023-04-06T00:02:06.366Z,100893.81
2023-04-06T00:07:29.729Z,100905.00
2023-04-06T00:12:52.093Z,100889.53
2023-04-06T00:18:14.812Z,100922.19
2023-04-06T00:23:37.193Z,100902.22
2023-04-06T00:29:00.525Z,100918.94
2023-04-06T00:34:22.878Z,100905.50
2023-04-06T00:39:45.143Z,100902.72
2023-04-06T00:45:07.428Z,100918.00
2023-04-06T00:50:29.630Z,100912.53
2023-04-06T00:55:51.685Z,100923.59
2023-04-06T01:01:17.021Z,100916.25
2023-04-06T01:06:40.297Z,100915.47
2023-04-06T01:12:03.697Z,100910.59
2023-04-06T01:17:30.184Z,100931.66
2023-04-06T01:22:59.526Z,100931.28
2023-04-06T01:28:22.852Z,100932.69
2023-04-06T01:34:01.156Z,100935.16
2023-04-06T01:39:23.323Z,100939.03
2023-04-06T01:44:47.028Z,100928.22
2023-04-06T01:50:11.435Z,100939.25
2023-04-06T01:55:38.881Z,100935.38
2023-04-06T02:01:25.611Z,100931.13
2023-04-06T02:06:51.824Z,100933.38
2023-04-06T02:12:19.017Z,100943.59
2023-04-06T02:17:42.934Z,100944.59
2023-04-06T02:23:05.632Z,100967.09
2023-04-06T02:28:27.913Z,100939.72
2023-04-06T02:33:50.533Z,100951.97
2023-04-06T02:39:13.897Z,100968.50
2023-04-06T02:44:37.660Z,100965.84
2023-04-06T02:49:59.954Z,100967.69
2023-04-06T02:55:22.641Z,100974.84
2023-04-06T03:00:45.771Z,100979.13
2023-04-06T03:06:09.065Z,100983.03
2023-04-06T03:11:48.329Z,100979.13
2023-04-06T03:17:12.433Z,100956.44
2023-04-06T03:22:37.886Z,100994.22
2023-04-06T03:28:10.979Z,100975.06
2023-04-06T03:33:43.503Z,100996.28
2023-04-06T03:39:12.188Z,100984.44
2023-04-06T03:44:38.975Z,100983.81
2023-04-06T03:50:05.205Z,100973.00
2023-04-06T03:55:31.783Z,100990.75
2023-04-06T04:00:55.166Z,100995.63
2023-04-06T04:06:17.479Z,101018.50
2023-04-06T04:11:39.791Z,101012.31
2023-04-06T04:17:02.850Z,100994.31
2023-04-06T04:22:27.846Z,100989.25
2023-04-06T04:27:52.245Z,100995.59
2023-04-06T04:33:17.564Z,101016.78
2023-04-06T04:38:41.507Z,101007.69
2023-04-06T04:44:04.483Z,101005.84
2023-04-06T04:49:28.199Z,101029.13
2023-04-06T04:54:53.804Z,101020.72
2023-04-06T05:00:22.457Z,101038.72
2023-04-06T05:05:46.419Z,101039.00
2023-04-06T05:11:11.947Z,101052.66
2023-04-06T05:16:39.463Z,101039.66
2023-04-06T05:22:03.089Z,101062.56
2023-04-06T05:28:05.110Z,101075.81
2023-04-06T05:33:31.273Z,101069.06
2023-04-06T05:45:29.628Z,101084.53
2023-04-06T05:51:49.025Z,101084.66
2023-04-06T06:04:20.454Z,101034.47
2023-04-06T06:10:09.803Z,101050.13
2023-04-06T06:21:22.074Z,101051.00
2023-04-06T06:32:30.134Z,101080.91
2023-04-06T06:37:52.121Z,101094.09
2023-04-06T06:43:17.720Z,101083.66
2023-04-06T06:49:06.093Z,101077.94
2023-04-06T06:54:28.540Z,101077.50
2023-04-06T06:59:51.366Z,101073.84
2023-04-06T07:05:26.886Z,101069.91
2023-04-06T07:10:55.056Z,101074.03
2023-04-06T07:16:18.005Z,101084.44
2023-04-06T07:21:40.463Z,101074.81
2023-04-06T07:27:03.336Z,101074.34
2023-04-06T07:32:32.962Z,101046.28
2023-04-06T07:37:59.673Z,101053.00
2023-04-06T07:43:24.379Z,101065.44
2023-04-06T07:48:47.379Z,101053.00
2023-04-06T07:54:12.742Z,101066.75
2023-04-06T07:59:35.222Z,101049.28
2023-04-06T08:04:57.420Z,101053.59
2023-04-06T08:10:19.856Z,101053.13
2023-04-06T08:15:42.087Z,101064.13
2023-04-06T08:21:04.652Z,101055.75
2023-04-06T08:26:27.105Z,101054.88
2023-04-06T08:31:49.516Z,101034.75
2023-04-06T08:37:11.525Z,101051.81
2023-04-06T08:42:35.132Z,101037.78
2023-04-06T08:48:03.207Z,101040.94
2023-04-06T08:53:25.686Z,101028.88
2023-04-06T08:58:52.922Z,101019.63
2023-04-06T09:04:17.765Z,101037.97
2023-04-06T09:09:45.016Z,101067.97
2023-04-06T09:15:08.156Z,101036.56
2023-04-06T09:20:30.409Z,101058.91
2023-04-06T09:25:52.671Z,101044.91
2023-04-06T09:31:23.835Z,101036.84
2023-04-06T09:36:46.504Z,101040.09
2023-04-06T09:42:12.185Z,101033.34
2023-04-06T09:47:37.720Z,101017.91
2023-04-06T09:53:01.907Z,101020.38
2023-04-06T09:58:27.957Z,101020.88
2023-04-06T10:04:05.349Z,101052.53
2023-04-06T10:09:37.110Z,101016.94
2023-04-06T10:14:59.672Z,101015.06
2023-04-06T10:20:25.978Z,101035.03
2023-04-06T10:25:56.467Z,101013.16
2023-04-06T10:31:29.244Z,101030.75
2023-04-06T10:36:51.797Z,101028.31
2023-04-06T10:42:16.284Z,101036.13
2023-04-06T10:47:44.770Z,101036.38
2023-04-06T10:53:06.810Z,101016.94
2023-04-06T10:58:29.868Z,101041.25
2023-04-06T11:03:55.586Z,100988.34
2023-04-06T11:09:31.774Z,101019.41
2023-04-06T11:15:08.058Z,101014.81
2023-04-06T11:20:30.470Z,101023.44
2023-04-06T11:25:54.197Z,100990.00
2023-04-06T11:31:16.552Z,101024.81
2023-04-06T11:36:42.916Z,100982.44
2023-04-06T11:42:07.602Z,100997.31
2023-04-06T11:47:34.249Z,101004.84
2023-04-06T11:53:04.605Z,100997.28
2023-04-06T11:58:26.709Z,100982.44
2023-04-06T12:03:49.341Z,101012.13
2023-04-06T12:09:11.769Z,100975.41
2023-04-06T12:14:34.287Z,100987.00
2023-04-06T12:20:05.375Z,100995.63
2023-04-06T12:25:27.857Z,100987.81
2023-04-06T12:30:49.890Z,100988.13
2023-04-06T12:36:17.037Z,100967.88
2023-04-06T12:41:41.992Z,100999.72
2023-04-06T12:47:08.816Z,100973.00
2023-04-06T12:52:33.526Z,100957.63
2023-04-06T12:57:56.748Z,100950.84
2023-04-06T13:03:20.633Z,100997.00
2023-04-06T13:08:42.870Z,100961.38
2023-04-06T13:14:17.886Z,100954.03
2023-04-06T13:19:40.140Z,100936.22
2023-04-06T13:25:02.288Z,100954.09
2023-04-06T13:30:28.002Z,100956.47
2023-04-06T13:35:50.049Z,100977.53
2023-04-06T13:41:19.352Z,100967.75
2023-04-06T13:46:41.593Z,100990.50
2023-04-06T13:52:04.817Z,100955.31
2023-04-06T13:57:29.557Z,100963.41
2023-04-06T14:02:52.561Z,100980.66
2023-04-06T14:08:15.661Z,100962.25
2023-04-06T14:13:37.870Z,100992.47
2023-04-06T14:19:00.504Z,100970.81
2023-04-06T14:24:23.299Z,100980.50
2023-04-06T14:29:48.278Z,100955.59
2023-04-06T14:35:20.366Z,100949.81
2023-04-06T14:40:58.361Z,101001.06
2023-04-06T14:46:22.349Z,100957.25
2023-04-06T14:51:44.446Z,100945.84
2023-04-06T14:57:07.910Z,100998.34
2023-04-06T15:02:31.324Z,100974.41
2023-04-06T15:07:59.575Z,100959.13
2023-04-06T15:13:25.133Z,100987.47
2023-04-06T15:19:03.217Z,101009.44
2023-04-06T15:24:40.017Z,100969.16
2023-04-06T15:30:02.613Z,100986.97
2023-04-06T15:35:25.372Z,100996.19
2023-04-06T15:40:51.623Z,101007.56
2023-04-06T15:46:17.794Z,100997.59
2023-04-06T15:51:40.906Z,101009.88
2023-04-06T15:57:03.454Z,101006.59
2023-04-06T16:02:26.940Z,101015.19
2023-04-06T16:07:49.782Z,101018.75
2023-04-06T16:13:15.392Z,101027.81
2023-04-06T16:18:37.823Z,101027.41
2023-04-06T16:24:00.266Z,101048.00
2023-04-06T16:42:44.542Z,101072.09
2023-04-06T16:48:07.810Z,101059.00
2023-04-06T16:53:30.162Z,101028.25
2023-04-06T16:58:52.891Z,101046.47
2023-04-06T17:04:15.932Z,101062.06
2023-04-06T17:09:40.546Z,101039.50
2023-04-06T17:15:02.927Z,101045.81
2023-04-06T17:20:25.358Z,101064.94
2023-04-06T17:25:48.511Z,101061.47
2023-04-06T17:31:12.760Z,101061.38
2023-04-06T17:36:35.180Z,101091.16
2023-04-06T17:42:01.083Z,101093.81
2023-04-06T17:47:23.842Z,101080.50
2023-04-06T17:58:13.078Z,101099.50
2023-04-06T18:03:35.641Z,101093.50
2023-04-06T18:08:57.969Z,101096.81
2023-04-06T18:14:20.059Z,101107.13
2023-04-06T18:19:42.340Z,101125.16
2023-04-06T18:25:05.407Z,101115.78
2023-04-06T18:30:28.110Z,101103.94
2023-04-06T18:35:50.152Z,101075.09
2023-04-06T18:41:12.281Z,101130.91
2023-04-06T18:46:35.226Z,101134.47
2023-04-06T18:51:59.773Z,101119.56
2023-04-06T18:57:21.862Z,101103.72
2023-04-06T19:02:45.151Z,101133.56
2023-04-06T19:08:07.100Z,101129.31
2023-04-06T19:13:32.717Z,101113.81
2023-04-06T19:19:00.323Z,101108.50
2023-04-06T19:24:22.418Z,101097.91
2023-04-06T19:29:45.233Z,101125.31
2023-04-06T19:35:09.677Z,101139.22
2023-04-06T19:40:31.894Z,101145.59
2023-04-06T19:45:56.978Z,101137.84
2023-04-06T19:51:19.351Z,101147.88
2023-04-06T19:56:41.750Z,101144.22
2023-04-06T20:02:03.817Z,101140.75
2023-04-06T20:07:29.851Z,101123.56
2023-04-06T20:12:58.777Z,101158.34
2023-04-06T20:18:22.549Z,101156.91
2023-04-06T20:23:45.483Z,101124.19
2023-04-06T20:35:07.124Z,101157.13
2023-04-06T20:40:40.240Z,101097.81
2023-04-06T20:46:17.325Z,101100.47
2023-04-06T20:51:41.092Z,101112.94
2023-04-06T20:57:14.846Z,101164.88
2023-04-06T21:02:49.906Z,101115.78
2023-04-06T21:14:57.229Z,101120.19
2023-04-06T21:20:28.221Z,101128.56
2023-04-06T21:25:58.417Z,101125.47
2023-04-06T21:31:22.146Z,101155.50
2023-04-06T21:36:44.539Z,101151.00
2023-04-06T21:42:07.962Z,101155.84
2023-04-06T21:47:30.268Z,101165.63
2023-04-06T21:52:53.025Z,101167.84
2023-04-06T21:58:15.988Z,101173.13
2023-04-06T22:03:40.043Z,101161.69
2023-04-06T22:09:03.067Z,101152.44
2023-04-06T22:14:28.690Z,101164.47
2023-04-06T22:19:50.720Z,101182.09
2023-04-06T22:25:13.239Z,101191.88
2023-04-06T22:54:41.951Z,101196.59
2023-04-06T23:11:35.255Z,101153.56
2023-04-06T23:16:58.030Z,101194.94
2023-04-06T23:22:20.390Z,101170.06
2023-04-06T23:27:42.609Z,101201.75
2023-04-06T23:33:05.049Z,101198.06
2023-04-06T23:38:27.275Z,101208.03
2023-04-06T23:43:49.516Z,101188.13
2023-04-06T23:49:11.738Z,101197.13
2023-04-06T23:54:34.324Z,101197.06
2023-04-06T23:59:57.859Z,101187.88
